sensor_id;sensor_type;location;lat;lon;timestamp;pressure;altitude;pressure_sealevel;temperature;humidity
63552;BME280;49698;48.072;7.800;2023-05-08T00:00:15;99702.91;;;15.57;99.90
63552;BME280;49698;48.072;7.800;2023-05-08T00:02:43;99704.31;;;15.55;100.00
63552;BME280;49698;48.072;7.800;2023-05-08T00:05:11;99693.50;;;15.55;100.00
63552;BME280;49698;48.072;7.800;2023-05-08T00:07:39;99698.91;;;15.55;100.00
63552;BME280;49698;48.072;7.800;2023-05-08T00:10:08;99696.19;;;15.55;100.00
63552;BME280;49698;48.072;7.800;2023-05-08T00:12:38;99704.31;;;15.55;100.00
63552;BME280;49698;48.072;7.800;2023-05-08T00:15:07;99692.38;;;15.56;100.00
63552;BME280;49698;48.072;7.800;2023-05-08T00:17:36;99691.91;;;15.54;100.00
63552;BME280;49698;48.072;7.800;2023-05-08T00:20:04;99696.53;;;15.53;100.00
63552;BME280;49698;48.072;7.800;2023-05-08T00:22:34;99690.31;;;15.53;100.00
63552;BME280;49698;48.072;7.800;2023-05-08T00:25:02;99693.81;;;15.53;100.00
63552;BME280;49698;48.072;7.800;2023-05-08T00:27:31;99698.44;;;15.53;100.00
63552;BME280;49698;48.072;7.800;2023-05-08T00:30:00;99697.31;;;15.54;100.00
63552;BME280;49698;48.072;7.800;2023-05-08T00:32:28;99697.31;;;15.54;100.00
63552;BME280;49698;48.072;7.800;2023-05-08T00:34:56;99693.50;;;15.55;100.00
63552;BME280;49698;48.072;7.800;2023-05-08T00:37:24;99691.56;;;15.55;100.00
63552;BME280;49698;48.072;7.800;2023-05-08T00:39:52;99691.91;;;15.54;100.00
63552;BME280;49698;48.072;7.800;2023-05-08T00:42:20;99693.50;;;15.55;100.00
63552;BME280;49698;48.072;7.800;2023-05-08T00:44:51;99694.00;;;15.57;100.00
63552;BME280;49698;48.072;7.800;2023-05-08T00:47:20;99695.59;;;15.58;100.00
63552;BME280;49698;48.072;7.800;2023-05-08T00:49:49;99697.97;;;15.59;100.00
63552;BME280;49698;48.072;7.800;2023-05-08T00:52:18;99701.31;;;15.56;100.00
63552;BME280;49698;48.072;7.800;2023-05-08T00:54:46;99702.41;;;15.55;100.00
63552;BME280;49698;48.072;7.800;2023-05-08T00:57:15;99699.41;;;15.57;100.00
63552;BME280;49698;48.072;7.800;2023-05-08T00:59:43;99703.84;;;15.53;100.00
63552;BME280;49698;48.072;7.800;2023-05-08T01:02:12;99703.94;;;15.48;100.00
63552;BME280;49698;48.072;7.800;2023-05-08T01:04:43;99707.78;;;15.47;100.00
63552;BME280;49698;48.072;7.800;2023-05-08T01:07:11;99713.19;;;15.47;100.00
63552;BME280;49698;48.072;7.800;2023-05-08T01:09:39;99714.78;;;15.48;100.00
63552;BME280;49698;48.072;7.800;2023-05-08T01:12:15;99706.06;;;15.51;100.00
63552;BME280;49698;48.072;7.800;2023-05-08T01:14:55;99701.94;;;15.53;100.00
63552;BME280;49698;48.072;7.800;2023-05-08T01:17:37;99711.34;;;15.56;100.00
63552;BME280;49698;48.072;7.800;2023-05-08T01:20:18;99711.84;;;15.58;100.00
63552;BME280;49698;48.072;7.800;2023-05-08T01:26:01;99716.16;;;15.59;100.00
63552;BME280;49698;48.072;7.800;2023-05-08T01:31:49;99714.38;;;15.54;100.00
63552;BME280;49698;48.072;7.800;2023-05-08T01:34:23;99711.34;;;15.56;100.00
63552;BME280;49698;48.072;7.800;2023-05-08T01:36:58;99715.16;;;15.55;100.00
63552;BME280;49698;48.072;7.800;2023-05-08T01:39:33;99713.56;;;15.54;100.00
63552;BME280;49698;48.072;7.800;2023-05-08T01:42:07;99707.97;;;15.50;100.00
63552;BME280;49698;48.072;7.800;2023-05-08T01:44:43;99725.63;;;15.48;100.00
63552;BME280;49698;48.072;7.800;2023-05-08T01:47:13;99711.59;;;15.46;100.00
63552;BME280;49698;48.072;7.800;2023-05-08T01:49:45;99721.31;;;15.47;100.00
63552;BME280;49698;48.072;7.800;2023-05-08T01:52:19;99720.53;;;15.46;100.00
63552;BME280;49698;48.072;7.800;2023-05-08T01:54:54;99722.63;;;15.49;100.00
63552;BME280;49698;48.072;7.800;2023-05-08T01:57:27;99726.13;;;15.50;100.00
63552;BME280;49698;48.072;7.800;2023-05-08T01:59:56;99728.84;;;15.50;99.94
63552;BME280;49698;48.072;7.800;2023-05-08T02:02:29;99726.13;;;15.50;100.00
63552;BME280;49698;48.072;7.800;2023-05-08T02:05:01;99720.22;;;15.48;99.75
63552;BME280;49698;48.072;7.800;2023-05-08T02:07:30;99717.03;;;15.46;99.85
63552;BME280;49698;48.072;7.800;2023-05-08T02:10:01;99722.44;;;15.46;100.00
63552;BME280;49698;48.072;7.800;2023-05-08T02:12:31;99709.97;;;15.45;99.94
63552;BME280;49698;48.072;7.800;2023-05-08T02:15:00;99714.13;;;15.42;99.90
63552;BME280;49698;48.072;7.800;2023-05-08T02:17:29;99711.22;;;15.38;100.00
63552;BME280;49698;48.072;7.800;2023-05-08T02:20:00;99712.63;;;15.36;100.00
63552;BME280;49698;48.072;7.800;2023-05-08T02:22:31;99721.56;;;15.36;100.00
63552;BME280;49698;48.072;7.800;2023-05-08T02:25:00;99721.06;;;15.34;100.00
63552;BME280;49698;48.072;7.800;2023-05-08T02:27:29;99724.91;;;15.33;100.00
63552;BME280;49698;48.072;7.800;2023-05-08T02:29:57;99724.91;;;15.33;100.00
63552;BME280;49698;48.072;7.800;2023-05-08T02:32:26;99720.28;;;15.34;100.00
63552;BME280;49698;48.072;7.800;2023-05-08T02:35:02;99726.50;;;15.34;100.00
63552;BME280;49698;48.072;7.800;2023-05-08T02:37:31;99728.09;;;15.35;100.00
63552;BME280;49698;48.072;7.800;2023-05-08T02:40:03;99724.25;;;15.36;100.00
63552;BME280;49698;48.072;7.800;2023-05-08T02:42:33;99727.47;;;15.38;100.00
63552;BME280;49698;48.072;7.800;2023-05-08T02:45:02;99724.25;;;15.36;99.92
63552;BME280;49698;48.072;7.800;2023-05-08T02:47:37;99731.31;;;15.37;99.95
63552;BME280;49698;48.072;7.800;2023-05-08T02:50:15;99724.25;;;15.36;99.96
63552;BME280;49698;48.072;7.800;2023-05-08T02:52:47;99728.09;;;15.35;100.00
63552;BME280;49698;48.072;7.800;2023-05-08T02:55:25;99729.81;;;15.31;99.95
63552;BME280;49698;48.072;7.800;2023-05-08T02:58:03;99725.50;;;15.30;100.00
63552;BME280;49698;48.072;7.800;2023-05-08T03:00:39;99731.53;;;15.27;100.00
63552;BME280;49698;48.072;7.800;2023-05-08T03:03:14;99723.41;;;15.27;100.00
63552;BME280;49698;48.072;7.800;2023-05-08T03:05:50;99722.28;;;15.28;100.00
63552;BME280;49698;48.072;7.800;2023-05-08T03:08:24;99724.50;;;15.26;100.00
63552;BME280;49698;48.072;7.800;2023-05-08T03:10:53;99725.59;;;15.25;100.00
63552;BME280;49698;48.072;7.800;2023-05-08T03:13:22;99721.28;;;15.24;100.00
63552;BME280;49698;48.072;7.800;2023-05-08T03:15:54;99708.88;;;15.23;100.00
63552;BME280;49698;48.072;7.800;2023-05-08T03:18:27;99711.06;;;15.21;100.00
63552;BME280;49698;48.072;7.800;2023-05-08T03:20:59;99714.88;;;15.20;100.00
63552;BME280;49698;48.072;7.800;2023-05-08T03:23:28;99709.78;;;15.19;100.00
63552;BME280;49698;48.072;7.800;2023-05-08T03:25:59;99705.97;;;15.20;100.00
63552;BME280;49698;48.072;7.800;2023-05-08T03:28:28;99704.06;;;15.20;100.00
63552;BME280;49698;48.072;7.800;2023-05-08T03:30:59;99710.59;;;15.19;100.00
63552;BME280;49698;48.072;7.800;2023-05-08T03:33:28;99709.47;;;15.20;100.00
63552;BME280;49698;48.072;7.800;2023-05-08T03:35:59;99711.38;;;15.20;100.00
63552;BME280;49698;48.072;7.800;2023-05-08T03:38:27;99713.78;;;15.21;100.00
63552;BME280;49698;48.072;7.800;2023-05-08T03:40:54;99708.69;;;15.20;100.00
63552;BME280;49698;48.072;7.800;2023-05-08T03:43:23;99713.31;;;15.19;100.00
63552;BME280;49698;48.072;7.800;2023-05-08T03:45:54;99713.31;;;15.19;100.00
63552;BME280;49698;48.072;7.800;2023-05-08T03:48:24;99721.72;;;15.17;100.00
63552;BME280;49698;48.072;7.800;2023-05-08T03:50:54;99715.22;;;15.19;100.00
63552;BME280;49698;48.072;7.800;2023-05-08T03:53:24;99717.59;;;15.20;100.00
63552;BME280;49698;48.072;7.800;2023-05-08T03:55:52;99721.91;;;15.21;100.00
63552;BME280;49698;48.072;7.800;2023-05-08T03:58:23;99725.44;;;15.22;100.00
63552;BME280;49698;48.072;7.800;2023-05-08T04:01:02;99727.31;;;15.21;100.00
63552;BME280;49698;48.072;7.800;2023-05-08T04:03:42;99729.22;;;15.21;100.00
63552;BME280;49698;48.072;7.800;2023-05-08T04:06:16;99721.91;;;15.21;100.00
63552;BME280;49698;48.072;7.800;2023-05-08T04:09:01;99724.59;;;15.21;100.00
63552;BME280;49698;48.072;7.800;2023-05-08T04:11:36;99727.31;;;15.21;100.00
63552;BME280;49698;48.072;7.800;2023-05-08T04:14:07;99732.25;;;15.19;100.00
63552;BME280;49698;48.072;7.800;2023-05-08T04:16:39;99730.94;;;15.16;100.00
63552;BME280;49698;48.072;7.800;2023-05-08T04:19:18;99741.50;;;15.18;100.00
63552;BME280;49698;48.072;7.800;2023-05-08T04:21:46;99738.28;;;15.16;100.00
63552;BME280;49698;48.072;7.800;2023-05-08T04:24:17;99741.59;;;15.13;100.00
63552;BME280;49698;48.072;7.800;2023-05-08T04:26:47;99738.41;;;15.11;100.00
63552;BME280;49698;48.072;7.800;2023-05-08T04:29:16;99742.38;;;15.13;100.00
63552;BME280;49698;48.072;7.800;2023-05-08T04:31:45;99738.88;;;15.13;100.00
63552;BME280;49698;48.072;7.800;2023-05-08T04:34:17;99747.78;;;15.13;100.00
63552;BME280;49698;48.072;7.800;2023-05-08T04:36:45;99738.88;;;15.13;100.00
63552;BME280;49698;48.072;7.800;2023-05-08T04:39:15;99743.22;;;15.14;100.00
63552;BME280;49698;48.072;7.800;2023-05-08T04:41:43;99750.22;;;15.15;100.00
63552;BME280;49698;48.072;7.800;2023-05-08T04:44:13;99742.28;;;15.19;100.00
63552;BME280;49698;48.072;7.800;2023-05-08T04:46:41;99751.69;;;15.21;100.00
63552;BME280;49698;48.072;7.800;2023-05-08T04:49:09;99755.22;;;15.22;100.00
63552;BME280;49698;48.072;7.800;2023-05-08T04:51:37;99753.31;;;15.22;100.00
63552;BME280;49698;48.072;7.800;2023-05-08T04:54:05;99753.78;;;15.24;100.00
63552;BME280;49698;48.072;7.800;2023-05-08T04:56:35;99757.31;;;15.25;100.00
63552;BME280;49698;48.072;7.800;2023-05-08T04:59:03;99756.50;;;15.24;100.00
63552;BME280;49698;48.072;7.800;2023-05-08T05:01:31;99759.22;;;15.24;100.00
63552;BME280;49698;48.072;7.800;2023-05-08T05:03:59;99757.00;;;15.26;100.00
63552;BME280;49698;48.072;7.800;2023-05-08T05:06:27;99761.31;;;15.27;100.00
63552;BME280;49698;48.072;7.800;2023-05-08T05:08:55;99757.50;;;15.28;100.00
63552;BME280;49698;48.072;7.800;2023-05-08T05:11:23;99760.72;;;15.30;100.00
63552;BME280;49698;48.072;7.800;2023-05-08T05:13:53;99767.41;;;15.33;100.00
63552;BME280;49698;48.072;7.800;2023-05-08T05:16:21;99762.81;;;15.33;100.00
63552;BME280;49698;48.072;7.800;2023-05-08T05:18:49;99766.00;;;15.35;100.00
63552;BME280;49698;48.072;7.800;2023-05-08T05:21:18;99767.31;;;15.38;100.00
63552;BME280;49698;48.072;7.800;2023-05-08T05:23:46;99768.09;;;15.38;100.00
63552;BME280;49698;48.072;7.800;2023-05-08T05:26:14;99773.22;;;15.40;100.00
63552;BME280;49698;48.072;7.800;2023-05-08T05:28:42;99762.38;;;15.40;100.00
63552;BME280;49698;48.072;7.800;2023-05-08T05:31:12;99774.84;;;15.41;100.00
63552;BME280;49698;48.072;7.800;2023-05-08T05:33:40;99778.63;;;15.40;100.00
63552;BME280;49698;48.072;7.800;2023-05-08T05:36:09;99777.81;;;15.39;100.00
63552;BME280;49698;48.072;7.800;2023-05-08T05:38:37;99782.63;;;15.43;100.00
63552;BME280;49698;48.072;7.800;2023-05-08T05:41:05;99778.81;;;15.44;100.00
63552;BME280;49698;48.072;7.800;2023-05-08T05:43:33;99775.81;;;15.45;100.00
63552;BME280;49698;48.072;7.800;2023-05-08T05:46:04;99780.59;;;15.48;100.00
63552;BME280;49698;48.072;7.800;2023-05-08T05:48:34;99785.41;;;15.51;100.00
63552;BME280;49698;48.072;7.800;2023-05-08T05:51:03;99794.53;;;15.55;100.00
63552;BME280;49698;48.072;7.800;2023-05-08T05:53:32;99796.31;;;15.60;100.00
63552;BME280;49698;48.072;7.800;2023-05-08T05:56:00;99786.47;;;15.64;100.00
63552;BME280;49698;48.072;7.800;2023-05-08T05:58:30;99795.66;;;15.68;100.00
63552;BME280;49698;48.072;7.800;2023-05-08T06:00:58;99785.78;;;15.72;100.00
63552;BME280;49698;48.072;7.800;2023-05-08T06:03:29;99790.75;;;15.79;100.00
63552;BME280;49698;48.072;7.800;2023-05-08T06:05:58;99788.75;;;15.84;99.80
63552;BME280;49698;48.072;7.800;2023-05-08T06:08:26;99791.31;;;15.89;99.40
63552;BME280;49698;48.072;7.800;2023-05-08T06:10:55;99795.81;;;15.94;99.10
63552;BME280;49698;48.072;7.800;2023-05-08T06:13:23;99788.38;;;16.00;99.40
63552;BME280;49698;48.072;7.800;2023-05-08T06:15:53;99800.69;;;16.06;98.58
63552;BME280;49698;48.072;7.800;2023-05-08T06:18:22;99792.44;;;16.11;98.08
63552;BME280;49698;48.072;7.800;2023-05-08T06:20:55;99793.09;;;16.17;98.07
63552;BME280;49698;48.072;7.800;2023-05-08T06:23:25;99797.28;;;16.23;97.78
63552;BME280;49698;48.072;7.800;2023-05-08T06:25:53;99801.97;;;16.31;97.39
63552;BME280;49698;48.072;7.800;2023-05-08T06:28:21;99800.88;;;16.41;96.86
63552;BME280;49698;48.072;7.800;2023-05-08T06:30:51;99796.00;;;16.51;96.57
63552;BME280;49698;48.072;7.800;2023-05-08T06:33:19;99798.13;;;16.63;95.77
63552;BME280;49698;48.072;7.800;2023-05-08T06:35:48;99795.16;;;16.73;95.20
63552;BME280;49698;48.072;7.800;2023-05-08T06:38:16;99799.19;;;16.84;94.41
63552;BME280;49698;48.072;7.800;2023-05-08T06:40:46;99792.50;;;16.91;93.85
63552;BME280;49698;48.072;7.800;2023-05-08T06:43:15;99794.31;;;17.04;93.64
63552;BME280;49698;48.072;7.800;2023-05-08T06:45:43;99793.03;;;17.19;92.86
63552;BME280;49698;48.072;7.800;2023-05-08T06:48:11;99793.38;;;17.34;91.51
63552;BME280;49698;48.072;7.800;2023-05-08T06:50:39;99795.50;;;17.46;90.90
63552;BME280;49698;48.072;7.800;2023-05-08T06:53:08;99794.19;;;17.52;89.18
63552;BME280;49698;48.072;7.800;2023-05-08T06:55:36;99797.88;;;17.48;89.51
63552;BME280;49698;48.072;7.800;2023-05-08T06:58:07;99796.13;;;17.52;89.90
63552;BME280;49698;48.072;7.800;2023-05-08T07:00:36;99796.28;;;17.55;89.58
63552;BME280;49698;48.072;7.800;2023-05-08T07:03:03;99800.28;;;17.58;89.85
63552;BME280;49698;48.072;7.800;2023-05-08T07:05:32;99792.59;;;17.60;89.51
63552;BME280;49698;48.072;7.800;2023-05-08T07:08:00;99795.81;;;17.62;89.16
63552;BME280;49698;48.072;7.800;2023-05-08T07:10:28;99798.03;;;17.60;89.20
63552;BME280;49698;48.072;7.800;2023-05-08T07:12:56;99806.69;;;17.62;88.92
63552;BME280;49698;48.072;7.800;2023-05-08T07:15:25;99807.16;;;17.64;88.82
63552;BME280;49698;48.072;7.800;2023-05-08T07:17:53;99812.59;;;17.64;88.97
63552;BME280;49698;48.072;7.800;2023-05-08T07:20:21;99816.25;;;17.59;88.43
63552;BME280;49698;48.072;7.800;2023-05-08T07:22:49;99817.22;;;17.55;88.81
63552;BME280;49698;48.072;7.800;2023-05-08T07:25:17;99812.75;;;17.50;89.02
63552;BME280;49698;48.072;7.800;2023-05-08T07:27:46;99816.41;;;17.46;89.17
63552;BME280;49698;48.072;7.800;2023-05-08T07:30:14;99813.50;;;17.42;89.29
63552;BME280;49698;48.072;7.800;2023-05-08T07:32:43;99815.78;;;17.40;89.41
63552;BME280;49698;48.072;7.800;2023-05-08T07:35:11;99822.00;;;17.41;89.51
63552;BME280;49698;48.072;7.800;2023-05-08T07:37:41;99816.72;;;17.44;89.43
63552;BME280;49698;48.072;7.800;2023-05-08T07:40:09;99817.53;;;17.45;89.15
63552;BME280;49698;48.072;7.800;2023-05-08T07:42:39;99814.81;;;17.45;89.01
63552;BME280;49698;48.072;7.800;2023-05-08T07:45:08;99813.69;;;17.46;89.05
63552;BME280;49698;48.072;7.800;2023-05-08T07:47:37;99810.84;;;17.51;89.24
63552;BME280;49698;48.072;7.800;2023-05-08T07:50:07;99814.97;;;17.57;88.80
63552;BME280;49698;48.072;7.800;2023-05-08T07:52:35;99811.63;;;17.60;88.42
63552;BME280;49698;48.072;7.800;2023-05-08T07:55:03;99813.72;;;17.63;88.95
63552;BME280;49698;48.072;7.800;2023-05-08T07:57:35;99812.56;;;17.73;88.54
63552;BME280;49698;48.072;7.800;2023-05-08T08:00:04;99812.91;;;17.89;88.00
63552;BME280;49698;48.072;7.800;2023-05-08T08:02:39;99812.09;;;18.14;87.53
63552;BME280;49698;48.072;7.800;2023-05-08T08:05:08;99811.41;;;18.43;85.68
63552;BME280;49698;48.072;7.800;2023-05-08T08:07:37;99818.38;;;18.70;84.64
63552;BME280;49698;48.072;7.800;2023-05-08T08:10:06;99812.19;;;18.91;83.58
63552;BME280;49698;48.072;7.800;2023-05-08T08:12:34;99814.34;;;19.06;82.59
63552;BME280;49698;48.072;7.800;2023-05-08T08:15:02;99816.88;;;19.11;81.11
63552;BME280;49698;48.072;7.800;2023-05-08T08:17:30;99815.81;;;19.03;80.91
63552;BME280;49698;48.072;7.800;2023-05-08T08:19:58;99819.03;;;18.97;81.83
63552;BME280;49698;48.072;7.800;2023-05-08T08:22:28;99816.00;;;18.98;82.01
63552;BME280;49698;48.072;7.800;2023-05-08T08:24:56;99822.91;;;18.96;80.63
63552;BME280;49698;48.072;7.800;2023-05-08T08:27:24;99828.81;;;18.98;81.45
63552;BME280;49698;48.072;7.800;2023-05-08T08:29:52;99817.38;;;19.04;81.04
63552;BME280;49698;48.072;7.800;2023-05-08T08:32:27;99822.97;;;19.08;80.74
63552;BME280;49698;48.072;7.800;2023-05-08T08:34:55;99827.31;;;19.09;80.26
63552;BME280;49698;48.072;7.800;2023-05-08T08:37:23;99820.53;;;19.15;80.20
63552;BME280;49698;48.072;7.800;2023-05-08T08:39:53;99818.09;;;19.22;79.58
63552;BME280;49698;48.072;7.800;2023-05-08T08:42:21;99816.78;;;19.28;79.49
63552;BME280;49698;48.072;7.800;2023-05-08T08:44:50;99811.13;;;19.34;79.18
63552;BME280;49698;48.072;7.800;2023-05-08T08:47:18;99803.75;;;19.34;79.03
63552;BME280;49698;48.072;7.800;2023-05-08T08:49:49;99813.13;;;19.45;77.97
63552;BME280;49698;48.072;7.800;2023-05-08T08:52:26;99814.66;;;19.55;77.60
63552;BME280;49698;48.072;7.800;2023-05-08T08:55:02;99815.47;;;19.55;76.62
63552;BME280;49698;48.072;7.800;2023-05-08T08:57:35;99814.56;;;19.51;76.14
63552;BME280;49698;48.072;7.800;2023-05-08T09:00:08;99819.19;;;19.51;76.38
63552;BME280;49698;48.072;7.800;2023-05-08T09:02:40;99817.28;;;19.51;76.30
63552;BME280;49698;48.072;7.800;2023-05-08T09:05:10;99817.00;;;19.44;76.38
63552;BME280;49698;48.072;7.800;2023-05-08T09:07:39;99824.78;;;19.34;76.91
63552;BME280;49698;48.072;7.800;2023-05-08T09:10:09;99825.94;;;19.24;76.91
63552;BME280;49698;48.072;7.800;2023-05-08T09:12:41;99816.53;;;19.13;77.04
63552;BME280;49698;48.072;7.800;2023-05-08T09:15:10;99826.66;;;19.12;77.60
63552;BME280;49698;48.072;7.800;2023-05-08T09:17:38;99822.13;;;19.16;77.32
63552;BME280;49698;48.072;7.800;2023-05-08T09:20:08;99821.41;;;19.28;77.12
63552;BME280;49698;48.072;7.800;2023-05-08T09:22:36;99812.06;;;19.38;77.20
63552;BME280;49698;48.072;7.800;2023-05-08T09:25:05;99814.66;;;19.55;76.56
63552;BME280;49698;48.072;7.800;2023-05-08T09:27:37;99820.69;;;19.69;75.70
63552;BME280;49698;48.072;7.800;2023-05-08T09:30:07;99826.06;;;19.78;75.37
63552;BME280;49698;48.072;7.800;2023-05-08T09:32:37;99818.34;;;19.80;75.45
63552;BME280;49698;48.072;7.800;2023-05-08T09:35:06;99824.38;;;19.86;74.66
63552;BME280;49698;48.072;7.800;2023-05-08T09:37:37;99820.00;;;19.93;74.60
63552;BME280;49698;48.072;7.800;2023-05-08T09:40:12;99822.53;;;19.98;74.04
63552;BME280;49698;48.072;7.800;2023-05-08T09:42:42;99823.31;;;19.99;73.97
63552;BME280;49698;48.072;7.800;2023-05-08T09:45:11;99822.19;;;20.00;73.80
63552;BME280;49698;48.072;7.800;2023-05-08T09:47:52;99829.91;;;19.98;73.84
63552;BME280;49698;48.072;7.800;2023-05-08T09:50:20;99828.91;;;20.02;73.99
63552;BME280;49698;48.072;7.800;2023-05-08T09:52:48;99826.31;;;20.06;73.36
63552;BME280;49698;48.072;7.800;2023-05-08T09:55:17;99830.41;;;20.12;73.36
63552;BME280;49698;48.072;7.800;2023-05-08T09:57:54;99830.00;;;20.22;72.83
63552;BME280;49698;48.072;7.800;2023-05-08T10:00:23;99822.50;;;20.32;72.73
63552;BME280;49698;48.072;7.800;2023-05-08T10:02:56;99831.53;;;20.44;72.29
63552;BME280;49698;48.072;7.800;2023-05-08T10:05:26;99826.94;;;20.57;70.99
63552;BME280;49698;48.072;7.800;2023-05-08T10:07:56;99832.94;;;20.63;71.15
63552;BME280;49698;48.072;7.800;2023-05-08T10:10:25;99836.53;;;20.88;70.09
63552;BME280;49698;48.072;7.800;2023-05-08T10:12:55;99837.97;;;21.10;69.08
63552;BME280;49698;48.072;7.800;2023-05-08T10:15:27;99828.28;;;21.24;68.01
63552;BME280;49698;48.072;7.800;2023-05-08T10:18:01;99832.03;;;21.32;67.60
63552;BME280;49698;48.072;7.800;2023-05-08T10:20:31;99825.69;;;21.40;67.52
63552;BME280;49698;48.072;7.800;2023-05-08T10:23:00;99830.47;;;21.43;66.49
63552;BME280;49698;48.072;7.800;2023-05-08T10:25:31;99830.31;;;21.52;66.17
63552;BME280;49698;48.072;7.800;2023-05-08T10:28:09;99825.28;;;21.66;66.47
63552;BME280;49698;48.072;7.800;2023-05-08T10:30:42;99825.53;;;21.89;65.74
63552;BME280;49698;48.072;7.800;2023-05-08T10:33:15;99820.75;;;22.42;64.36
63552;BME280;49698;48.072;7.800;2023-05-08T10:35:47;99815.09;;;22.99;61.87
63552;BME280;49698;48.072;7.800;2023-05-08T10:38:15;99810.50;;;23.38;60.47
63552;BME280;49698;48.072;7.800;2023-05-08T10:40:43;99809.38;;;23.23;59.79
63552;BME280;49698;48.072;7.800;2023-05-08T10:43:14;99813.53;;;22.98;61.51
63552;BME280;49698;48.072;7.800;2023-05-08T10:45:42;99802.16;;;23.15;61.24
63552;BME280;49698;48.072;7.800;2023-05-08T10:48:19;99798.72;;;23.02;59.54
63552;BME280;49698;48.072;7.800;2023-05-08T10:50:56;99806.09;;;22.98;61.60
63552;BME280;49698;48.072;7.800;2023-05-08T10:53:31;99790.88;;;23.36;59.89
63552;BME280;49698;48.072;7.800;2023-05-08T10:56:01;99794.44;;;23.56;58.38
63552;BME280;49698;48.072;7.800;2023-05-08T10:58:32;99791.16;;;23.85;58.23
63552;BME280;49698;48.072;7.800;2023-05-08T11:01:11;99790.94;;;24.17;56.60
63552;BME280;49698;48.072;7.800;2023-05-08T11:03:41;99780.94;;;24.28;55.29
63552;BME280;49698;48.072;7.800;2023-05-08T11:06:10;99781.16;;;24.39;54.48
63552;BME280;49698;48.072;7.800;2023-05-08T11:08:47;99779.91;;;24.36;54.54
63552;BME280;49698;48.072;7.800;2023-05-08T11:11:27;99782.75;;;24.40;53.76
63552;BME280;49698;48.072;7.800;2023-05-08T11:14:09;99777.41;;;24.51;53.19
63552;BME280;49698;48.072;7.800;2023-05-08T11:17:08;99770.28;;;24.46;53.44
63552;BME280;49698;48.072;7.800;2023-05-08T11:19:37;99769.22;;;24.54;52.68
63552;BME280;49698;48.072;7.800;2023-05-08T11:22:22;99768.81;;;24.52;52.68
63552;BME280;49698;48.072;7.800;2023-05-08T11:24:59;99772.78;;;24.55;53.50
63552;BME280;49698;48.072;7.800;2023-05-08T11:30:36;99762.06;;;24.27;54.72
63552;BME280;49698;48.072;7.800;2023-05-08T11:33:14;99767.28;;;24.32;55.40
63552;BME280;49698;48.072;7.800;2023-05-08T11:35:52;99757.94;;;24.59;53.62
63552;BME280;49698;48.072;7.800;2023-05-08T11:38:24;99761.22;;;24.69;53.45
63552;BME280;49698;48.072;7.800;2023-05-08T11:40:57;99761.31;;;24.49;52.66
63552;BME280;49698;48.072;7.800;2023-05-08T11:46:43;99759.06;;;23.89;55.29
63552;BME280;49698;48.072;7.800;2023-05-08T11:49:19;99760.00;;;23.78;55.73
63552;BME280;49698;48.072;7.800;2023-05-08T11:51:50;99759.00;;;23.86;55.44
63552;BME280;49698;48.072;7.800;2023-05-08T11:54:21;99759.81;;;24.09;54.32
63552;BME280;49698;48.072;7.800;2023-05-08T11:56:50;99760.44;;;24.22;53.24
63552;BME280;49698;48.072;7.800;2023-05-08T11:59:22;99751.22;;;24.34;52.63
63552;BME280;49698;48.072;7.800;2023-05-08T12:01:51;99743.28;;;24.29;53.55
63552;BME280;49698;48.072;7.800;2023-05-08T12:04:26;99751.44;;;24.45;53.25
63552;BME280;49698;48.072;7.800;2023-05-08T12:06:56;99753.72;;;24.43;52.01
63552;BME280;49698;48.072;7.800;2023-05-08T12:09:25;99762.75;;;23.97;53.34
63552;BME280;49698;48.072;7.800;2023-05-08T12:11:56;99750.63;;;23.79;52.73
63552;BME280;49698;48.072;7.800;2023-05-08T12:14:24;99758.06;;;23.78;53.49
63552;BME280;49698;48.072;7.800;2023-05-08T12:16:53;99743.63;;;23.81;53.30
63552;BME280;49698;48.072;7.800;2023-05-08T12:19:21;99751.25;;;23.91;53.89
63552;BME280;49698;48.072;7.800;2023-05-08T12:21:50;99747.41;;;23.96;53.45
63552;BME280;49698;48.072;7.800;2023-05-08T12:24:18;99743.50;;;23.97;53.93
63552;BME280;49698;48.072;7.800;2023-05-08T12:26:48;99737.59;;;23.95;53.73
63552;BME280;49698;48.072;7.800;2023-05-08T12:29:17;99744.41;;;23.82;53.68
63552;BME280;49698;48.072;7.800;2023-05-08T12:31:46;99746.84;;;23.87;53.28
63552;BME280;49698;48.072;7.800;2023-05-08T12:34:16;99743.63;;;24.04;53.48
63552;BME280;49698;48.072;7.800;2023-05-08T12:36:44;99741.63;;;24.24;52.53
63552;BME280;49698;48.072;7.800;2023-05-08T12:39:14;99741.53;;;24.40;52.13
63552;BME280;49698;48.072;7.800;2023-05-08T12:41:46;99745.34;;;24.58;51.74
63552;BME280;49698;48.072;7.800;2023-05-08T12:44:19;99740.16;;;24.53;51.11
63552;BME280;49698;48.072;7.800;2023-05-08T12:46:51;99735.91;;;24.56;50.79
63552;BME280;49698;48.072;7.800;2023-05-08T12:49:25;99739.66;;;24.71;50.17
63552;BME280;49698;48.072;7.800;2023-05-08T12:52:04;99739.47;;;24.83;49.95
63552;BME280;49698;48.072;7.800;2023-05-08T12:54:34;99737.78;;;24.75;49.70
63552;BME280;49698;48.072;7.800;2023-05-08T12:57:08;99741.69;;;24.51;51.17
63552;BME280;49698;48.072;7.800;2023-05-08T12:59:36;99745.72;;;24.57;51.35
63552;BME280;49698;48.072;7.800;2023-05-08T13:02:11;99741.69;;;24.51;51.28
63552;BME280;49698;48.072;7.800;2023-05-08T13:04:41;99741.44;;;24.36;50.81
63552;BME280;49698;48.072;7.800;2023-05-08T13:07:09;99735.97;;;24.13;52.11
63552;BME280;49698;48.072;7.800;2023-05-08T13:09:37;99740.50;;;23.83;52.27
63552;BME280;49698;48.072;7.800;2023-05-08T13:12:05;99737.19;;;23.54;52.39
63552;BME280;49698;48.072;7.800;2023-05-08T13:14:36;99735.88;;;23.29;53.44
63552;BME280;49698;48.072;7.800;2023-05-08T13:17:04;99734.34;;;23.12;53.73
63552;BME280;49698;48.072;7.800;2023-05-08T13:19:32;99735.97;;;22.97;53.66
63552;BME280;49698;48.072;7.800;2023-05-08T13:22:01;99739.50;;;22.82;54.26
63552;BME280;49698;48.072;7.800;2023-05-08T13:24:29;99736.16;;;22.73;54.39